createdAt,value
2017-07-18T00:00:27.624Z,11.8
2017-07-18T00:01:30.065Z,11.8
2017-07-18T00:02:32.831Z,11.9
2017-07-18T00:03:35.257Z,11.8
2017-07-18T00:04:38.048Z,11.8
2017-07-18T00:05:40.166Z,11.9
2017-07-18T00:06:42.249Z,11.8
2017-07-18T00:07:44.690Z,11.8
2017-07-18T00:08:47.137Z,11.8
2017-07-18T00:09:49.236Z,11.8
2017-07-18T00:10:51.323Z,11.8
2017-07-18T00:11:53.726Z,11.8
2017-07-18T00:12:55.816Z,11.8
2017-07-18T00:13:57.926Z,11.8
2017-07-18T00:15:00.349Z,11.9
2017-07-18T00:16:03.817Z,11.8
2017-07-18T00:17:06.246Z,11.8
2017-07-18T00:18:08.701Z,11.8
2017-07-18T00:19:11.478Z,11.8
2017-07-18T00:20:13.922Z,11.8
2017-07-18T00:21:16.362Z,11.8
2017-07-18T00:22:18.461Z,11.8
2017-07-18T00:23:20.553Z,11.8
2017-07-18T00:24:22.641Z,11.8
2017-07-18T00:25:25.089Z,11.8
2017-07-18T00:26:27.194Z,11.8
2017-07-18T00:27:29.277Z,11.8
2017-07-18T00:28:31.401Z,11.8
2017-07-18T00:29:33.540Z,11.8
2017-07-18T00:30:35.995Z,11.8
2017-07-18T00:31:38.080Z,11.8
2017-07-18T00:32:40.194Z,11.8
2017-07-18T00:33:42.972Z,11.8
2017-07-18T00:34:45.392Z,11.8
2017-07-18T00:35:47.485Z,11.7
2017-07-18T00:36:49.585Z,11.7
2017-07-18T00:37:52.006Z,11.7
2017-07-18T00:38:54.442Z,11.6
2017-07-18T00:39:56.872Z,11.6
2017-07-18T00:40:58.964Z,11.6
2017-07-18T00:42:01.745Z,11.6
2017-07-18T00:43:04.488Z,11.6
2017-07-18T00:44:06.584Z,11.6
2017-07-18T00:45:08.709Z,11.6
2017-07-18T00:46:11.148Z,11.6
2017-07-18T00:47:13.237Z,11.6
2017-07-18T00:48:15.680Z,11.6
2017-07-18T00:49:17.767Z,11.6
2017-07-18T00:50:20.198Z,11.5
2017-07-18T00:51:22.285Z,11.5
2017-07-18T00:52:24.740Z,11.5
2017-07-18T00:53:27.191Z,11.5
2017-07-18T00:54:29.613Z,11.5
2017-07-18T00:55:32.052Z,11.5
2017-07-18T00:56:34.162Z,11.5
2017-07-18T00:57:36.593Z,11.5
2017-07-18T00:58:39.372Z,11.5
2017-07-18T00:59:41.483Z,11.5
2017-07-18T01:00:43.609Z,11.5
2017-07-18T01:01:46.039Z,11.5
2017-07-18T01:02:48.140Z,11.4
2017-07-18T01:03:50.240Z,11.5
2017-07-18T01:04:52.328Z,11.5
2017-07-18T01:05:54.410Z,11.5
2017-07-18T01:06:56.474Z,11.5
2017-07-18T01:07:58.555Z,11.5
2017-07-18T01:09:00.640Z,11.5
2017-07-18T01:10:03.101Z,11.4
2017-07-18T01:11:05.198Z,11.4
2017-07-18T01:12:08.656Z,11.4
2017-07-18T01:13:11.454Z,11.4
2017-07-18T01:14:13.891Z,11.5
2017-07-18T01:15:15.981Z,11.5
2017-07-18T01:16:18.459Z,11.5
2017-07-18T01:17:20.535Z,11.5
2017-07-18T01:18:22.629Z,11.4
2017-07-18T01:19:25.081Z,11.5
2017-07-18T01:20:27.179Z,11.4
2017-07-18T01:21:29.617Z,11.4
2017-07-18T01:22:32.040Z,11.4
2017-07-18T01:23:34.134Z,11.4
2017-07-18T01:24:36.240Z,11.4
2017-07-18T01:25:38.689Z,11.4
2017-07-18T01:26:40.791Z,11.4
2017-07-18T01:27:42.886Z,11.4
2017-07-18T01:28:45.321Z,11.4
2017-07-18T01:29:47.427Z,11.4
2017-07-18T01:30:49.516Z,11.4
2017-07-18T01:31:51.608Z,11.4
2017-07-18T01:32:53.696Z,11.4
2017-07-18T01:33:55.813Z,11.3
2017-07-18T01:34:57.880Z,11.3
2017-07-18T01:35:59.967Z,11.3
2017-07-18T01:37:02.401Z,11.3
2017-07-18T01:38:05.193Z,11.3
2017-07-18T01:39:07.280Z,11.3
2017-07-18T01:40:10.393Z,11.3
2017-07-18T01:41:12.479Z,11.3
2017-07-18T01:42:14.918Z,11.3
2017-07-18T01:43:17.698Z,11.3
2017-07-18T01:44:19.799Z,11.3
2017-07-18T01:45:21.898Z,11.3
2017-07-18T01:46:24.333Z,11.3
2017-07-18T01:47:26.768Z,11.3
2017-07-18T01:48:28.868Z,11.3
2017-07-18T01:49:30.976Z,11.3
2017-07-18T01:50:33.060Z,11.2
2017-07-18T01:51:35.157Z,11.2
2017-07-18T01:52:37.254Z,11.2
2017-07-18T01:53:39.686Z,11.2
2017-07-18T01:54:42.453Z,11.2
2017-07-18T01:55:44.885Z,11.1
2017-07-18T01:56:46.988Z,11.1
2017-07-18T01:57:49.764Z,11.1
2017-07-18T01:58:52.859Z,11.1
2017-07-18T01:59:55.284Z,11.1
2017-07-18T02:00:57.365Z,11.1
2017-07-18T02:01:59.463Z,11.1
2017-07-18T02:03:02.228Z,11.1
2017-07-18T02:04:04.670Z,11.2
2017-07-18T02:05:07.176Z,11.1
2017-07-18T02:06:09.632Z,11.1
2017-07-18T02:07:11.729Z,11.1
2017-07-18T02:08:14.168Z,11.1
2017-07-18T02:09:16.253Z,11.1
2017-07-18T02:10:18.354Z,11.1
2017-07-18T02:11:20.482Z,11.1
2017-07-18T02:12:22.912Z,11.1
2017-07-18T02:13:25.034Z,11.1
2017-07-18T02:14:27.140Z,11
2017-07-18T02:15:29.207Z,11
2017-07-18T02:16:31.339Z,11
2017-07-18T02:17:33.771Z,11
2017-07-18T02:18:35.855Z,11
2017-07-18T02:19:37.941Z,11
2017-07-18T02:20:40.723Z,11
2017-07-18T02:21:43.507Z,10.9
2017-07-18T02:22:45.943Z,11
2017-07-18T02:23:48.384Z,10.9
2017-07-18T02:24:50.486Z,10.9
2017-07-18T02:25:52.584Z,10.9
2017-07-18T02:26:54.690Z,10.9
2017-07-18T02:27:57.135Z,10.9
2017-07-18T02:28:59.568Z,10.9
2017-07-18T02:30:02.015Z,10.9
2017-07-18T02:31:04.774Z,10.9
2017-07-18T02:32:08.265Z,10.9
2017-07-18T02:33:10.721Z,10.8
2017-07-18T02:34:13.502Z,10.9
2017-07-18T02:35:15.964Z,10.8
2017-07-18T02:36:18.398Z,10.8
2017-07-18T02:37:20.850Z,10.8
2017-07-18T02:38:23.296Z,10.9
2017-07-18T02:39:25.718Z,10.9
2017-07-18T02:40:27.832Z,10.8
2017-07-18T02:41:30.260Z,10.8
2017-07-18T02:42:33.085Z,10.8
2017-07-18T02:43:35.549Z,10.9
2017-07-18T02:44:38.014Z,10.8
2017-07-18T02:45:40.114Z,10.8
2017-07-18T02:46:42.911Z,10.8
2017-07-18T02:47:45.332Z,10.8
2017-07-18T02:48:48.167Z,10.8
2017-07-18T02:49:50.959Z,10.8
2017-07-18T02:50:53.744Z,10.8
2017-07-18T02:51:56.511Z,10.8
2017-07-18T02:52:58.650Z,10.7
2017-07-18T02:54:01.784Z,10.7
2017-07-18T02:55:04.217Z,10.7
2017-07-18T02:56:06.318Z,10.7
2017-07-18T02:57:08.763Z,10.8
2017-07-18T02:58:11.532Z,10.8
2017-07-18T02:59:13.623Z,10.7
2017-07-18T03:00:16.427Z,10.8
2017-07-18T03:01:18.853Z,10.8
2017-07-18T03:02:21.975Z,10.8
2017-07-18T03:03:24.438Z,10.8
2017-07-18T03:04:27.557Z,10.8
2017-07-18T03:05:29.660Z,10.8
2017-07-18T03:06:32.439Z,10.8
2017-07-18T03:07:34.896Z,10.7
2017-07-18T03:08:36.985Z,10.7
2017-07-18T03:09:39.076Z,10.7
2017-07-18T03:10:41.530Z,10.7
2017-07-18T03:11:43.954Z,10.7
2017-07-18T03:12:46.732Z,10.7
2017-07-18T03:13:49.169Z,10.7
2017-07-18T03:14:51.590Z,10.7
2017-07-18T03:15:54.383Z,10.7
2017-07-18T03:16:56.479Z,10.7
2017-07-18T03:17:58.580Z,10.6
2017-07-18T03:19:01.376Z,10.7
2017-07-18T03:20:04.546Z,10.7
2017-07-18T03:21:06.968Z,10.7
2017-07-18T03:22:10.102Z,10.7
2017-07-18T03:23:12.200Z,10.6
2017-07-18T03:24:14.333Z,10.6
2017-07-18T03:25:16.419Z,10.7
2017-07-18T03:26:19.532Z,10.6
2017-07-18T03:27:21.961Z,10.6
2017-07-18T03:28:24.401Z,10.7
2017-07-18T03:29:26.485Z,10.6
2017-07-18T03:30:28.587Z,10.6
2017-07-18T03:31:30.677Z,10.6
2017-07-18T03:32:33.126Z,10.7
2017-07-18T03:33:35.904Z,10.7
2017-07-18T03:34:38.694Z,10.7
2017-07-18T03:35:41.483Z,10.7
2017-07-18T03:36:44.259Z,10.7
2017-07-18T03:37:46.696Z,10.7
2017-07-18T03:38:48.800Z,10.7
2017-07-18T03:39:51.222Z,10.7
2017-07-18T03:40:53.664Z,10.7
2017-07-18T03:41:56.458Z,10.7
2017-07-18T03:42:58.561Z,10.7
2017-07-18T03:44:01.004Z,10.7
2017-07-18T03:45:03.446Z,10.7
2017-07-18T03:46:06.218Z,10.7
2017-07-18T03:47:08.311Z,10.7
2017-07-18T03:48:10.764Z,10.7
2017-07-18T03:49:13.215Z,10.7
2017-07-18T03:50:15.649Z,10.7
2017-07-18T03:51:18.432Z,10.7
2017-07-18T03:52:20.883Z,10.8
2017-07-18T03:53:23.310Z,10.8
2017-07-18T03:54:26.433Z,10.8
2017-07-18T03:55:29.221Z,10.8
2017-07-18T03:56:31.320Z,10.8
2017-07-18T03:57:33.752Z,10.8
2017-07-18T03:58:36.879Z,10.8
2017-07-18T03:59:39.649Z,10.8
2017-07-18T04:00:42.773Z,10.8
2017-07-18T04:01:45.197Z,10.8
2017-07-18T04:02:48.013Z,10.9
2017-07-18T04:03:50.105Z,10.9
2017-07-18T04:04:52.895Z,10.9
2017-07-18T04:05:55.386Z,11
2017-07-18T04:06:57.496Z,10.9
2017-07-18T04:07:59.939Z,11
2017-07-18T04:09:03.060Z,11.1
2017-07-18T04:10:05.527Z,11.1
2017-07-18T04:11:08.631Z,11.1
2017-07-18T04:12:10.724Z,11.1
2017-07-18T04:13:12.833Z,11.1
2017-07-18T04:14:15.957Z,11.1
2017-07-18T04:15:18.074Z,11.1
2017-07-18T04:16:20.844Z,11.1
2017-07-18T04:17:23.285Z,11.2
2017-07-18T04:18:26.062Z,11.2
2017-07-18T04:19:28.480Z,11.2
2017-07-18T04:20:30.651Z,11.3
2017-07-18T04:21:33.105Z,11.3
2017-07-18T04:22:35.893Z,11.3
2017-07-18T04:23:38.368Z,11.3
2017-07-18T04:24:40.816Z,11.3
2017-07-18T04:25:43.268Z,11.4
2017-07-18T04:26:46.043Z,11.4
2017-07-18T04:27:48.481Z,11.4
2017-07-18T04:28:50.960Z,11.4
2017-07-18T04:29:53.387Z,11.4
2017-07-18T04:30:55.815Z,11.4
2017-07-18T04:31:58.602Z,11.5
2017-07-18T04:33:01.398Z,11.5
2017-07-18T04:34:03.499Z,11.5
2017-07-18T04:35:05.932Z,11.5
2017-07-18T04:36:08.431Z,11.5
2017-07-18T04:37:10.510Z,11.5
2017-07-18T04:38:12.966Z,11.6
2017-07-18T04:39:15.055Z,11.5
2017-07-18T04:40:17.160Z,11.6
2017-07-18T04:41:19.959Z,11.6
2017-07-18T04:42:22.389Z,11.6
2017-07-18T04:43:24.502Z,11.6
2017-07-18T04:44:26.601Z,11.7
2017-07-18T04:45:28.681Z,11.7
2017-07-18T04:46:30.796Z,11.8
2017-07-18T04:47:33.221Z,11.8
2017-07-18T04:48:35.665Z,11.8
2017-07-18T04:49:38.453Z,12
2017-07-18T04:50:41.215Z,11.9
2017-07-18T04:51:43.695Z,11.9
2017-07-18T04:52:46.151Z,12
2017-07-18T04:53:48.233Z,12
2017-07-18T04:54:50.357Z,12.1
2017-07-18T04:55:52.438Z,12.1
2017-07-18T04:56:55.235Z,12.1
2017-07-18T04:57:57.334Z,12.2
2017-07-18T04:58:59.775Z,12.3
2017-07-18T05:00:02.914Z,12.3
2017-07-18T05:01:05.342Z,12.3
2017-07-18T05:02:08.137Z,12.3
2017-07-18T05:03:10.576Z,12.4
2017-07-18T05:04:12.691Z,12.4
2017-07-18T05:05:14.796Z,12.5
2017-07-18T05:06:16.910Z,12.5
2017-07-18T05:07:19.701Z,12.5
2017-07-18T05:08:21.818Z,12.6
2017-07-18T05:09:23.891Z,12.6
2017-07-18T05:10:26.020Z,12.6
2017-07-18T05:11:28.832Z,12.6
2017-07-18T05:12:30.931Z,12.6
2017-07-18T05:13:33.390Z,12.7
2017-07-18T05:14:35.491Z,12.7
2017-07-18T05:15:37.940Z,12.8
2017-07-18T05:16:40.397Z,12.9
2017-07-18T05:17:42.495Z,12.9
2017-07-18T05:18:45.640Z,13
2017-07-18T05:19:48.079Z,13.1
2017-07-18T05:20:50.514Z,13.1
2017-07-18T05:21:52.599Z,13.2
2017-07-18T05:22:55.048Z,13.1
2017-07-18T05:23:57.146Z,13.2
2017-07-18T05:24:59.275Z,13.3
2017-07-18T05:26:01.364Z,13.4
2017-07-18T05:27:04.180Z,13.4
2017-07-18T05:28:06.964Z,13.4
2017-07-18T05:29:09.395Z,13.4
2017-07-18T05:30:11.873Z,13.4
2017-07-18T05:31:13.973Z,13.4
2017-07-18T05:32:16.414Z,13.4
2017-07-18T05:33:18.516Z,13.5
2017-07-18T05:34:20.611Z,13.5
2017-07-18T05:35:22.746Z,13.5
2017-07-18T05:36:24.848Z,13.6
2017-07-18T05:37:26.929Z,13.6
2017-07-18T05:38:29.057Z,13.7
2017-07-18T05:39:31.148Z,13.7
2017-07-18T05:40:33.599Z,13.7
2017-07-18T05:41:36.067Z,13.7
2017-07-18T05:42:38.181Z,13.8
2017-07-18T05:43:41.291Z,13.8
2017-07-18T05:44:43.749Z,13.8
2017-07-18T05:45:46.193Z,13.9
2017-07-18T05:46:48.969Z,13.9
2017-07-18T05:47:51.081Z,14
2017-07-18T05:48:53.174Z,14
2017-07-18T05:49:55.278Z,14
2017-07-18T05:50:57.393Z,14.1
2017-07-18T05:51:59.500Z,14.1
2017-07-18T05:53:02.638Z,14.1
2017-07-18T05:54:05.083Z,14.1
2017-07-18T05:55:07.966Z,14.1
2017-07-18T05:56:10.090Z,14.2
2017-07-18T05:57:12.199Z,14.2
2017-07-18T05:58:14.311Z,14.2
2017-07-18T05:59:16.748Z,14.3
2017-07-18T06:00:19.206Z,14.3
2017-07-18T06:01:21.295Z,14.4
2017-07-18T06:02:23.793Z,14.4
2017-07-18T06:03:25.896Z,14.4
2017-07-18T06:04:28.343Z,14.4
2017-07-18T06:05:30.798Z,14.4
2017-07-18T06:06:33.260Z,14.4
2017-07-18T06:07:35.378Z,14.4
2017-07-18T06:08:37.486Z,14.5
2017-07-18T06:09:39.903Z,14.5
2017-07-18T06:10:42.705Z,14.6
2017-07-18T06:11:44.793Z,14.6
2017-07-18T06:12:47.226Z,14.7
2017-07-18T06:13:49.331Z,14.7
2017-07-18T06:14:51.422Z,14.7
2017-07-18T06:15:53.885Z,14.7
2017-07-18T06:16:56.325Z,14.8
2017-07-18T06:17:58.428Z,14.8
2017-07-18T06:19:00.532Z,14.8
2017-07-18T06:20:03.725Z,14.8
2017-07-18T06:21:06.879Z,14.9
2017-07-18T06:22:09.337Z,14.9
2017-07-18T06:23:11.492Z,14.9
2017-07-18T06:24:14.291Z,15
2017-07-18T06:25:16.377Z,15
2017-07-18T06:26:18.826Z,15.1
2017-07-18T06:27:21.626Z,15.1
2017-07-18T06:28:23.765Z,15.1
2017-07-18T06:29:26.550Z,15.2
2017-07-18T06:30:28.661Z,15.2
2017-07-18T06:31:31.104Z,15.3
2017-07-18T06:32:33.232Z,15.2
2017-07-18T06:33:35.323Z,15.3
2017-07-18T06:34:37.756Z,15.3
2017-07-18T06:35:39.885Z,15.3
2017-07-18T06:36:42.331Z,15.3
2017-07-18T06:37:44.753Z,15.4
2017-07-18T06:38:46.861Z,15.4
2017-07-18T06:39:49.333Z,15.5
2017-07-18T06:40:51.796Z,15.6
2017-07-18T06:41:53.875Z,15.6
2017-07-18T06:42:55.984Z,15.7
2017-07-18T06:43:58.083Z,15.7
2017-07-18T06:45:00.198Z,15.8
2017-07-18T06:46:02.654Z,15.8
2017-07-18T06:47:05.108Z,15.7
2017-07-18T06:48:07.239Z,15.8
2017-07-18T06:49:09.376Z,15.8
2017-07-18T06:50:11.479Z,15.9
2017-07-18T06:51:13.941Z,16
2017-07-18T06:52:16.048Z,16.1
2017-07-18T06:53:18.490Z,16.1
2017-07-18T06:54:21.289Z,16.1
2017-07-18T06:55:23.383Z,16.1
2017-07-18T06:56:25.507Z,16.1
2017-07-18T06:57:27.950Z,16.1
2017-07-18T06:58:30.056Z,16.1
2017-07-18T06:59:32.871Z,16.2
2017-07-18T07:00:35.356Z,16.3
2017-07-18T07:01:38.134Z,16.5
2017-07-18T07:02:40.568Z,16.5
2017-07-18T07:03:43.048Z,16.5
2017-07-18T07:04:45.500Z,16.6
2017-07-18T07:05:47.945Z,16.7
2017-07-18T07:06:50.756Z,16.8
2017-07-18T07:07:52.843Z,16.8
2017-07-18T07:08:54.958Z,16.8
2017-07-18T07:09:57.074Z,16.8
2017-07-18T07:10:59.194Z,16.9
2017-07-18T07:12:01.308Z,16.9
2017-07-18T07:13:03.783Z,17
2017-07-18T07:14:05.899Z,17.1
2017-07-18T07:15:08.016Z,17.2
2017-07-18T07:16:10.478Z,17.3
2017-07-18T07:17:12.938Z,17.4
2017-07-18T07:18:15.750Z,17.4
2017-07-18T07:19:18.541Z,17.3
2017-07-18T07:20:20.687Z,17.4
2017-07-18T07:21:23.120Z,17.3
2017-07-18T07:22:25.261Z,17.4
2017-07-18T07:23:27.348Z,17.4
2017-07-18T07:24:29.512Z,17.4
2017-07-18T07:25:31.614Z,17.5
2017-07-18T07:26:34.411Z,17.6
2017-07-18T07:27:36.872Z,17.7
2017-07-18T07:28:39.311Z,17.6
2017-07-18T07:29:41.762Z,17.6
2017-07-18T07:30:44.224Z,17.5
2017-07-18T07:31:46.685Z,17.6
2017-07-18T07:32:48.806Z,17.7
2017-07-18T07:33:50.913Z,17.8
2017-07-18T07:34:53.018Z,17.9
2017-07-18T07:35:55.457Z,17.9
2017-07-18T07:36:57.938Z,18
2017-07-18T07:38:00.729Z,17.9
2017-07-18T07:39:03.492Z,17.9
2017-07-18T07:40:05.947Z,17.8
2017-07-18T07:41:08.740Z,17.8
2017-07-18T07:42:10.887Z,18
2017-07-18T07:43:12.996Z,18
2017-07-18T07:44:15.477Z,18
2017-07-18T07:45:17.922Z,18.1
2017-07-18T07:46:20.028Z,18.1
2017-07-18T07:47:22.469Z,18.1
2017-07-18T07:48:24.544Z,18.3
2017-07-18T07:49:26.666Z,18.3
2017-07-18T07:50:29.136Z,18.3
2017-07-18T07:51:31.582Z,18.2
2017-07-18T07:52:33.687Z,18.2
2017-07-18T07:53:35.809Z,18.2
2017-07-18T07:54:37.912Z,18.2
2017-07-18T07:55:39.997Z,18.3
2017-07-18T07:56:42.461Z,18.3
2017-07-18T07:57:44.935Z,18.1
2017-07-18T07:58:47.371Z,18.1
2017-07-18T07:59:49.813Z,18.2
2017-07-18T08:00:51.923Z,18.2
2017-07-18T08:01:54.738Z,18.2
2017-07-18T08:02:56.832Z,18.2
2017-07-18T08:03:58.939Z,18.1
2017-07-18T08:05:01.039Z,18.1
2017-07-18T08:06:03.526Z,18
2017-07-18T08:07:05.630Z,18
2017-07-18T08:08:07.738Z,18.1
2017-07-18T08:09:09.842Z,18.2
2017-07-18T08:10:12.286Z,18.2
2017-07-18T08:11:14.377Z,18.1
2017-07-18T08:12:16.840Z,18.1
2017-07-18T08:13:18.922Z,17.9
2017-07-18T08:14:21.024Z,17.9
2017-07-18T08:15:23.112Z,17.8
2017-07-18T08:16:25.202Z,17.8
2017-07-18T08:17:27.300Z,18
2017-07-18T08:18:29.402Z,18
2017-07-18T08:19:31.488Z,18
2017-07-18T08:20:33.941Z,17.9
2017-07-18T08:21:36.390Z,17.9
2017-07-18T08:22:38.840Z,17.9
2017-07-18T08:23:41.252Z,18
2017-07-18T08:24:43.364Z,18
2017-07-18T08:25:45.802Z,18
2017-07-18T08:26:47.896Z,17.9
2017-07-18T08:27:50.336Z,17.9
2017-07-18T08:28:52.439Z,17.9
2017-07-18T08:29:54.891Z,18
2017-07-18T08:30:56.973Z,18
2017-07-18T08:31:59.415Z,18
2017-07-18T08:33:01.886Z,18
2017-07-18T08:34:04.317Z,17.8
2017-07-18T08:35:06.767Z,18
2017-07-18T08:36:09.248Z,18.3
2017-07-18T08:37:11.344Z,18.6
2017-07-18T08:38:13.464Z,18.9
2017-07-18T08:39:15.543Z,19
2017-07-18T08:40:17.650Z,19.1
2017-07-18T08:41:19.743Z,19.3
2017-07-18T08:42:22.191Z,19.5
2017-07-18T08:43:24.271Z,19.7
2017-07-18T08:44:26.399Z,19.8
2017-07-18T08:45:28.484Z,20
2017-07-18T08:46:30.931Z,20.2
2017-07-18T08:47:33.041Z,20.1
2017-07-18T08:48:35.150Z,20.3
2017-07-18T08:49:37.256Z,20.2
2017-07-18T08:50:39.345Z,20
2017-07-18T08:51:41.440Z,19.9
2017-07-18T08:52:43.893Z,19.6
2017-07-18T08:53:46.009Z,19.4
2017-07-18T08:54:48.100Z,19.6
2017-07-18T08:55:50.570Z,19.4
2017-07-18T08:56:52.659Z,19.5
2017-07-18T08:57:55.113Z,19.1
2017-07-18T08:58:57.211Z,19.1
2017-07-18T08:59:59.312Z,19
2017-07-18T09:01:02.123Z,19.2
2017-07-18T09:02:04.904Z,19.1
2017-07-18T09:03:06.997Z,19.2
2017-07-18T09:04:09.417Z,19.3
2017-07-18T09:05:11.526Z,19.1
2017-07-18T09:06:13.634Z,19.1
2017-07-18T09:07:16.077Z,19.1
2017-07-18T09:08:18.846Z,19.2
2017-07-18T09:09:21.307Z,19.2
2017-07-18T09:10:23.405Z,19.4
2017-07-18T09:11:25.491Z,19.4
2017-07-18T09:12:27.592Z,19.2
2017-07-18T09:13:29.709Z,19.2
2017-07-18T09:14:32.142Z,19.1
2017-07-18T09:15:34.243Z,19
2017-07-18T09:16:36.341Z,18.9
2017-07-18T09:17:38.446Z,18.8
2017-07-18T09:18:40.534Z,18.9
2017-07-18T09:19:42.968Z,19.1
2017-07-18T09:20:45.089Z,19.1
2017-07-18T09:21:47.183Z,19.1
2017-07-18T09:22:49.287Z,19.3
2017-07-18T09:23:51.384Z,19
2017-07-18T09:24:53.492Z,18.9
2017-07-18T09:25:55.578Z,18.8
2017-07-18T09:26:58.355Z,18.9
2017-07-18T09:28:00.813Z,18.9
2017-07-18T09:29:02.907Z,19
2017-07-18T09:30:05.341Z,19
2017-07-18T09:31:07.447Z,19.1
2017-07-18T09:32:09.538Z,19.4
2017-07-18T09:33:11.642Z,19.7
2017-07-18T09:34:14.098Z,20.2
2017-07-18T09:35:16.344Z,20.5
2017-07-18T09:36:18.485Z,20.8
2017-07-18T09:37:20.965Z,20.9
2017-07-18T09:38:23.396Z,21.2
2017-07-18T09:39:25.841Z,21.3
2017-07-18T09:40:27.930Z,20.9
2017-07-18T09:41:30.044Z,20.7
2017-07-18T09:42:32.146Z,20.8
2017-07-18T09:43:34.583Z,20.7
2017-07-18T09:44:36.666Z,20.7
2017-07-18T09:45:39.144Z,20.8
2017-07-18T09:46:41.249Z,20.8
2017-07-18T09:47:43.366Z,20.6
2017-07-18T09:48:45.462Z,20.4
2017-07-18T09:49:47.569Z,20.3
2017-07-18T09:50:49.690Z,20.1
2017-07-18T09:51:51.788Z,20
2017-07-18T09:52:53.883Z,19.8
2017-07-18T09:53:55.997Z,19.7
2017-07-18T09:54:58.430Z,19.6
2017-07-18T09:56:00.875Z,19.7
2017-07-18T09:57:02.977Z,19.7
2017-07-18T09:58:05.094Z,19.8
2017-07-18T09:59:07.523Z,19.8
2017-07-18T10:00:09.967Z,19.8
2017-07-18T10:01:12.075Z,19.6
2017-07-18T10:02:14.517Z,19.7
2017-07-18T10:03:16.947Z,19.9
2017-07-18T10:04:19.055Z,19.8
2017-07-18T10:05:21.507Z,19.7
2017-07-18T10:06:23.607Z,19.6
2017-07-18T10:07:25.715Z,19.7
2017-07-18T10:08:27.825Z,19.8
2017-07-18T10:09:29.913Z,20.2
2017-07-18T10:10:32.013Z,20.2
2017-07-18T10:11:34.108Z,20.3
2017-07-18T10:12:36.265Z,20.4
2017-07-18T10:13:38.360Z,20.6
2017-07-18T10:14:40.476Z,20.5
2017-07-18T10:15:42.553Z,20.2
2017-07-18T10:16:44.664Z,20.3
2017-07-18T10:17:46.785Z,20.5
2017-07-18T10:18:49.238Z,20.4
2017-07-18T10:19:51.346Z,20.4
2017-07-18T10:20:53.445Z,20.4
2017-07-18T10:21:55.533Z,20.6
2017-07-18T10:22:57.631Z,20.7
2017-07-18T10:24:00.068Z,20.9
2017-07-18T10:25:02.531Z,21.3
2017-07-18T10:26:04.624Z,21.5
2017-07-18T10:27:06.712Z,21.5
2017-07-18T10:28:09.159Z,21.5
2017-07-18T10:29:11.250Z,21.7
2017-07-18T10:30:13.370Z,21.9
2017-07-18T10:31:15.812Z,21.9
2017-07-18T10:32:17.914Z,21.8
2017-07-18T10:33:20.031Z,21.6
2017-07-18T10:34:22.463Z,21.3
2017-07-18T10:35:24.570Z,21.3
2017-07-18T10:36:26.689Z,21.3
2017-07-18T10:37:29.125Z,21.1
2017-07-18T10:38:31.232Z,21.2
2017-07-18T10:39:33.324Z,21.4
2017-07-18T10:40:35.785Z,21.3
2017-07-18T10:41:38.223Z,21.3
2017-07-18T10:42:40.645Z,21.3
2017-07-18T10:43:42.803Z,21.2
2017-07-18T10:44:44.908Z,21.2
2017-07-18T10:45:48.026Z,21.1
2017-07-18T10:46:50.469Z,21.2
2017-07-18T10:47:52.574Z,21.3
2017-07-18T10:48:54.680Z,21.4
2017-07-18T10:49:56.777Z,21.5
2017-07-18T10:50:58.873Z,21.3
2017-07-18T10:52:02.024Z,21.2
2017-07-18T10:53:04.803Z,21.3
2017-07-18T10:54:06.902Z,21.2
2017-07-18T10:55:09.365Z,21
2017-07-18T10:56:11.449Z,21.1
2017-07-18T10:57:13.893Z,21.3
2017-07-18T10:58:16.370Z,21.6
2017-07-18T10:59:18.823Z,22
2017-07-18T11:00:21.255Z,22.1
2017-07-18T11:01:23.381Z,22.3
2017-07-18T11:02:25.488Z,22.3
2017-07-18T11:03:27.612Z,22.4
2017-07-18T11:04:29.699Z,22.4
2017-07-18T11:05:32.498Z,22.5
2017-07-18T11:06:35.295Z,22.7
2017-07-18T11:07:37.378Z,22.3
2017-07-18T11:08:40.188Z,22
2017-07-18T11:09:42.316Z,21.8
2017-07-18T11:10:44.445Z,21.7
2017-07-18T11:11:46.542Z,21.5
2017-07-18T11:12:48.650Z,21.6
2017-07-18T11:13:50.764Z,21.6
2017-07-18T11:14:52.853Z,21.6
2017-07-18T11:15:55.634Z,21.5
2017-07-18T11:16:58.084Z,21.7
2017-07-18T11:18:00.195Z,21.8
2017-07-18T11:19:02.626Z,21.9
2017-07-18T11:20:04.893Z,21.9
2017-07-18T11:21:07.361Z,22
2017-07-18T11:22:09.467Z,22.2
2017-07-18T11:23:11.576Z,22.3
2017-07-18T11:24:14.044Z,22.2
2017-07-18T11:25:16.496Z,22.4
2017-07-18T11:26:18.578Z,22.5
2017-07-18T11:27:20.678Z,22.4
2017-07-18T11:28:23.133Z,22
2017-07-18T11:29:25.233Z,22.3
2017-07-18T11:30:27.346Z,22.3
2017-07-18T11:31:29.783Z,22.2
2017-07-18T11:32:31.898Z,22.1
2017-07-18T11:33:34.005Z,22.2
2017-07-18T11:34:36.459Z,22.6
2017-07-18T11:35:38.566Z,22.8
2017-07-18T11:36:40.674Z,22.4
2017-07-18T11:37:42.770Z,22.3
2017-07-18T11:38:44.901Z,22.5
2017-07-18T11:39:46.988Z,22.3
2017-07-18T11:40:49.121Z,22
2017-07-18T11:41:51.222Z,22.1
2017-07-18T11:42:53.323Z,22.4
2017-07-18T11:43:55.436Z,22.6
2017-07-18T11:44:58.233Z,22.7
2017-07-18T11:46:00.351Z,22.8
2017-07-18T11:47:03.160Z,23.2
2017-07-18T11:48:05.251Z,23.4
2017-07-18T11:49:07.370Z,23.9
2017-07-18T11:50:10.501Z,24
2017-07-18T11:51:12.616Z,23.6
2017-07-18T11:52:15.061Z,23.6
2017-07-18T11:53:17.512Z,23.3
2017-07-18T11:54:19.614Z,23.1
2017-07-18T11:55:22.058Z,22.8
2017-07-18T11:56:24.158Z,22.7
2017-07-18T11:57:26.643Z,22.4
2017-07-18T11:58:28.742Z,22.8
2017-07-18T11:59:30.887Z,23.1
2017-07-18T12:00:32.988Z,23
2017-07-18T12:01:35.098Z,22.7
2017-07-18T12:02:37.209Z,22.6
2017-07-18T12:03:39.311Z,22.6
2017-07-18T12:04:41.436Z,23
2017-07-18T12:05:43.541Z,23.1
2017-07-18T12:06:45.644Z,23.3
2017-07-18T12:07:48.180Z,23.3
2017-07-18T12:08:50.290Z,23.9
2017-07-18T12:09:52.395Z,24.5
2017-07-18T12:10:54.532Z,24.3
2017-07-18T12:11:56.998Z,24.1
2017-07-18T12:12:59.804Z,24.1
2017-07-18T12:14:01.901Z,23.8
2017-07-18T12:15:04.022Z,24.4
2017-07-18T12:16:06.486Z,24.6
2017-07-18T12:17:09.294Z,24.3
2017-07-18T12:18:11.745Z,23.9
2017-07-18T12:19:13.863Z,23.5
2017-07-18T12:20:15.978Z,23.4
2017-07-18T12:21:18.065Z,23.1
2017-07-18T12:22:20.194Z,23.1
2017-07-18T12:23:22.302Z,22.9
2017-07-18T12:24:24.405Z,23.2
2017-07-18T12:25:26.509Z,23.2
2017-07-18T12:26:29.292Z,23.3
2017-07-18T12:27:31.394Z,23.2
2017-07-18T12:28:33.525Z,23.3
2017-07-18T12:29:35.623Z,23.5
2017-07-18T12:30:38.413Z,23
2017-07-18T12:31:41.208Z,23
2017-07-18T12:32:43.305Z,23.6
2017-07-18T12:33:45.766Z,23.8
2017-07-18T12:34:47.870Z,24.3
2017-07-18T12:35:49.969Z,24.5
2017-07-18T12:36:52.407Z,24.4
2017-07-18T12:37:54.523Z,24
2017-07-18T12:38:56.670Z,24.2
2017-07-18T12:39:59.106Z,24.7
2017-07-18T12:41:01.211Z,25
2017-07-18T12:42:03.322Z,25.2
2017-07-18T12:43:05.431Z,24.7
2017-07-18T12:44:07.879Z,24.5
2017-07-18T12:45:10.687Z,25
2017-07-18T12:46:12.783Z,25.4
2017-07-18T12:47:15.257Z,25.5
2017-07-18T12:48:17.371Z,25.7
2017-07-18T12:49:19.488Z,25.8
2017-07-18T12:50:21.591Z,26.2
2017-07-18T12:51:23.723Z,26
2017-07-18T12:52:25.822Z,26
2017-07-18T12:53:27.958Z,25.6
2017-07-18T12:54:30.075Z,25.3
2017-07-18T12:55:32.194Z,25.6
2017-07-18T12:56:34.296Z,25.3
2017-07-18T12:57:36.419Z,25.4
2017-07-18T12:58:38.536Z,25.9
2017-07-18T12:59:40.661Z,26
2017-07-18T13:00:42.780Z,25.7
2017-07-18T13:01:44.887Z,25.4
2017-07-18T13:02:46.990Z,25.4
2017-07-18T13:03:49.120Z,25.3
2017-07-18T13:04:52.254Z,25.3
2017-07-18T13:05:54.398Z,26.1
2017-07-18T13:06:56.840Z,26.3
2017-07-18T13:07:59.288Z,26.1
2017-07-18T13:09:01.424Z,26
2017-07-18T13:10:03.549Z,26.3
2017-07-18T13:11:05.699Z,26.4
2017-07-18T13:12:08.189Z,26.6
2017-07-18T13:13:10.623Z,26.6
2017-07-18T13:14:12.743Z,26.5
2017-07-18T13:15:14.840Z,25.9
2017-07-18T13:16:17.407Z,25.5
2017-07-18T13:17:19.531Z,25
2017-07-18T13:18:21.651Z,25.7
2017-07-18T13:19:23.762Z,26.4
2017-07-18T13:20:25.875Z,26.5
2017-07-18T13:21:27.995Z,26.6
2017-07-18T13:22:30.478Z,26
2017-07-18T13:23:32.942Z,26.1
2017-07-18T13:24:35.060Z,26
2017-07-18T13:25:37.175Z,25.9
2017-07-18T13:26:39.648Z,26.3
2017-07-18T13:27:41.761Z,26.1
2017-07-18T13:28:44.608Z,26.2
2017-07-18T13:29:47.046Z,25.8
2017-07-18T13:30:49.160Z,25.5
2017-07-18T13:31:51.279Z,25.1
2017-07-18T13:32:53.786Z,25.1
2017-07-18T13:33:55.896Z,25.8
2017-07-18T13:34:58.365Z,25.7
2017-07-18T13:36:00.477Z,25.2
2017-07-18T13:37:02.926Z,25.2
2017-07-18T13:38:05.028Z,24.8
2017-07-18T13:39:07.832Z,24.7
2017-07-18T13:40:10.284Z,24.5
2017-07-18T13:41:12.752Z,24.9
2017-07-18T13:42:15.197Z,25.1
2017-07-18T13:43:17.738Z,25.2
2017-07-18T13:44:19.848Z,25.1
2017-07-18T13:45:21.973Z,25
2017-07-18T13:46:24.095Z,24.6
2017-07-18T13:47:26.227Z,24.5
2017-07-18T13:48:28.682Z,24.4
2017-07-18T13:49:30.838Z,24.4
2017-07-18T13:50:33.297Z,24.8
2017-07-18T13:51:35.758Z,25.2
2017-07-18T13:52:37.859Z,25
2017-07-18T13:53:39.983Z,24.8
2017-07-18T13:54:42.109Z,24.7